Time;durP1;ratioP1;P1;durP2;ratioP2;P2;SDS_P1;SDS_P2;PMS_P1;PMS_P2;Temp;Humidity;BMP_temperature;BMP_pressure;BME280_temperature;BME280_humidity;BME280_pressure;Samples;Min_cycle;Max_cycle;Signal;HPM_P1;HPM_P2
2021/09/22 00:00:52;;;;;;;9.70;6.03;;;13.50;68.20;;;;;;5037062;28;20135;-73
2021/09/22 00:03:18;;;;;;;9.77;5.65;;;13.40;68.10;;;;;;5037183;28;20155;-72
2021/09/22 00:05:44;;;;;;;9.07;6.10;;;13.40;68.00;;;;;;5037023;28;20033;-73
2021/09/22 00:08:10;;;;;;;10.77;6.47;;;13.30;67.90;;;;;;5037095;28;20022;-73
2021/09/22 00:10:36;;;;;;;9.23;6.13;;;13.30;68.10;;;;;;5037784;28;20017;-73
2021/09/22 00:13:02;;;;;;;9.30;6.70;;;13.20;68.20;;;;;;5041088;28;20472;-73
2021/09/22 00:15:28;;;;;;;9.77;6.03;;;13.20;68.40;;;;;;5040626;28;20154;-73
2021/09/22 00:17:53;;;;;;;10.02;6.35;;;13.20;68.40;;;;;;5041216;28;20036;-73
2021/09/22 00:20:23;;;;;;;9.07;6.35;;;13.10;68.30;;;;;;5040751;28;20049;-73
2021/09/22 00:22:50;;;;;;;10.77;6.85;;;13.10;68.20;;;;;;5040895;28;20075;-73
2021/09/22 00:25:16;;;;;;;10.90;7.70;;;13.10;68.50;;;;;;5036396;28;20026;-73
2021/09/22 00:27:42;;;;;;;11.73;7.60;;;13.00;68.70;;;;;;5030833;28;20017;-73
2021/09/22 00:30:12;;;;;;;12.20;7.72;;;13.00;69.10;;;;;;5040462;28;20041;-73
2021/09/22 00:32:38;;;;;;;11.50;7.00;;;13.00;69.30;;;;;;5040864;28;20033;-73
2021/09/22 00:35:05;;;;;;;11.55;6.95;;;13.00;68.80;;;;;;5040411;28;20046;-73
2021/09/22 00:37:31;;;;;;;11.30;7.47;;;13.00;68.60;;;;;;5040536;28;20373;-72
2021/09/22 00:39:57;;;;;;;11.68;7.82;;;12.90;69.20;;;;;;5040352;28;20108;-73
2021/09/22 00:42:23;;;;;;;11.13;7.25;;;12.90;69.10;;;;;;5039174;28;20460;-73
2021/09/22 00:45:03;;;;;;;12.98;7.75;;;12.90;69.00;;;;;;5040055;28;20041;-72
2021/09/22 00:47:29;;;;;;;11.57;7.88;;;12.90;69.00;;;;;;5040366;28;20036;-72
2021/09/22 00:49:55;;;;;;;11.07;6.97;;;12.90;68.90;;;;;;5040419;28;20040;-72
2021/09/22 00:52:22;;;;;;;12.57;7.18;;;12.80;68.80;;;;;;5040184;28;20049;-73
2021/09/22 00:54:48;;;;;;;10.95;6.90;;;12.80;68.70;;;;;;5040211;28;20021;-73
2021/09/22 00:57:16;;;;;;;10.80;7.25;;;12.80;68.70;;;;;;5040301;28;20495;-73
2021/09/22 00:59:42;;;;;;;11.20;7.70;;;12.70;68.90;;;;;;5040173;28;20373;-72
2021/09/22 01:02:09;;;;;;;11.18;7.13;;;12.70;69.00;;;;;;5040076;28;20033;-73
2021/09/22 01:04:37;;;;;;;11.68;7.97;;;12.70;69.30;;;;;;5040141;28;20072;-73
2021/09/22 01:07:08;;;;;;;11.95;7.10;;;12.70;69.20;;;;;;5038624;28;20030;-72
2021/09/22 01:09:34;;;;;;;12.43;7.78;;;12.60;69.40;;;;;;5039811;28;20021;-73
2021/09/22 01:12:00;;;;;;;10.35;7.28;;;12.60;69.00;;;;;;5038491;28;20080;-72
2021/09/22 01:14:27;;;;;;;10.80;7.05;;;12.50;69.00;;;;;;5040011;28;20028;-72
2021/09/22 01:16:54;;;;;;;11.65;7.63;;;12.50;69.30;;;;;;5039524;28;20077;-73
2021/09/22 01:19:21;;;;;;;10.77;7.18;;;12.50;69.40;;;;;;5039951;28;20033;-73
2021/09/22 01:21:51;;;;;;;10.50;6.75;;;12.40;69.50;;;;;;5039160;28;20026;-72
2021/09/22 01:24:17;;;;;;;11.35;7.47;;;12.40;69.30;;;;;;5039296;28;20034;-73
2021/09/22 01:26:43;;;;;;;11.02;7.07;;;12.40;69.60;;;;;;5026440;28;20026;-73
2021/09/22 01:29:09;;;;;;;12.65;7.47;;;12.40;69.90;;;;;;5039736;28;20040;-73
2021/09/22 01:31:37;;;;;;;13.25;7.60;;;12.40;70.00;;;;;;5038147;28;20024;-73
2021/09/22 01:34:05;;;;;;;10.80;6.95;;;12.30;70.00;;;;;;5039268;28;20041;-73
2021/09/22 01:36:31;;;;;;;13.13;7.22;;;12.30;70.10;;;;;;5039358;28;20104;-73
2021/09/22 01:38:57;;;;;;;11.30;7.22;;;12.20;70.10;;;;;;5039382;28;20061;-73
2021/09/22 01:41:24;;;;;;;12.30;7.18;;;12.20;70.30;;;;;;5039496;28;20056;-73
2021/09/22 01:43:50;;;;;;;10.45;6.70;;;12.20;70.20;;;;;;5038113;28;20029;-73
2021/09/22 01:46:15;;;;;;;13.48;7.60;;;12.10;70.20;;;;;;5039110;28;20060;-72
2021/09/22 01:48:41;;;;;;;11.88;7.72;;;12.10;70.10;;;;;;5039292;28;20030;-73
2021/09/22 01:51:09;;;;;;;11.27;7.25;;;12.10;70.10;;;;;;5039288;28;20079;-72
2021/09/22 01:53:36;;;;;;;12.63;7.28;;;12.10;70.20;;;;;;5039025;28;20100;-73
2021/09/22 01:56:04;;;;;;;12.15;8.02;;;12.00;70.10;;;;;;5039063;28;20049;-72
2021/09/22 01:58:31;;;;;;;12.23;7.65;;;12.00;70.00;;;;;;5039058;28;20572;-72
2021/09/22 02:01:00;;;;;;;13.45;7.78;;;11.90;70.00;;;;;;5038714;28;20026;-72
2021/09/22 02:03:27;;;;;;;11.80;7.15;;;11.90;70.10;;;;;;5039118;28;20026;-73
2021/09/22 02:05:52;;;;;;;12.73;7.68;;;11.90;70.40;;;;;;5038801;28;20021;-72
2021/09/22 02:08:18;;;;;;;12.48;7.85;;;11.90;70.40;;;;;;5038786;28;20022;-73
2021/09/22 02:10:44;;;;;;;14.00;8.23;;;11.80;70.40;;;;;;5038719;28;20029;-73
2021/09/22 02:13:10;;;;;;;12.32;7.65;;;11.80;70.40;;;;;;5038889;28;20021;-73
2021/09/22 02:15:36;;;;;;;12.18;8.40;;;11.80;70.50;;;;;;5038507;28;20052;-73
2021/09/22 02:18:02;;;;;;;13.38;8.30;;;11.80;70.60;;;;;;5038744;28;20022;-73
2021/09/22 02:20:28;;;;;;;12.82;7.95;;;11.70;70.80;;;;;;5038663;28;20029;-72
2021/09/22 02:22:54;;;;;;;13.70;8.57;;;11.70;70.60;;;;;;5038769;28;20376;-72
2021/09/22 02:25:21;;;;;;;13.70;7.53;;;11.70;70.80;;;;;;5021791;28;20024;-73
2021/09/22 02:27:47;;;;;;;12.55;8.05;;;11.60;70.90;;;;;;5029040;28;20022;-72
2021/09/22 02:30:18;;;;;;;12.10;7.55;;;11.60;70.80;;;;;;5038163;28;20022;-72
2021/09/22 02:32:44;;;;;;;13.00;8.50;;;11.60;71.00;;;;;;5038279;28;20021;-73
2021/09/22 02:35:11;;;;;;;12.50;8.35;;;11.50;70.90;;;;;;5038159;28;20063;-72
2021/09/22 02:37:37;;;;;;;11.40;7.03;;;11.50;70.90;;;;;;5037043;28;20388;-73
2021/09/22 02:40:06;;;;;;;11.10;7.25;;;11.50;70.70;;;;;;5038027;28;20029;-73
2021/09/22 02:42:32;;;;;;;12.57;7.70;;;11.50;70.50;;;;;;5035781;28;20116;-72
2021/09/22 02:44:57;;;;;;;11.57;7.60;;;11.50;70.70;;;;;;5037872;28;20064;-72
2021/09/22 02:47:25;;;;;;;10.52;7.07;;;11.50;71.10;;;;;;5038162;28;20029;-72
2021/09/22 02:49:52;;;;;;;11.65;7.28;;;11.40;71.00;;;;;;5038072;28;20105;-72
2021/09/22 02:52:18;;;;;;;11.20;7.00;;;11.40;71.10;;;;;;5037992;28;20030;-73
2021/09/22 02:54:44;;;;;;;12.50;7.18;;;11.40;71.20;;;;;;5037857;28;20104;-72
2021/09/22 02:57:10;;;;;;;12.77;7.65;;;11.40;71.30;;;;;;5037917;28;20060;-72
2021/09/22 02:59:36;;;;;;;11.10;7.32;;;11.40;71.40;;;;;;5037660;28;20025;-72
2021/09/22 03:02:02;;;;;;;10.60;6.93;;;11.30;71.20;;;;;;5037991;28;20029;-73
2021/09/22 03:04:28;;;;;;;10.70;7.20;;;11.30;71.30;;;;;;5024969;28;20385;-73
2021/09/22 03:06:54;;;;;;;11.45;7.18;;;11.20;71.10;;;;;;5037915;28;20084;-72
2021/09/22 03:09:20;;;;;;;11.55;6.95;;;11.20;71.00;;;;;;5029042;28;20079;-73
2021/09/22 03:11:45;;;;;;;10.50;7.18;;;11.20;71.20;;;;;;5037771;28;20128;-73
2021/09/22 03:14:11;;;;;;;12.05;7.70;;;11.20;71.40;;;;;;5024778;28;20424;-72
2021/09/22 03:16:37;;;;;;;10.82;7.18;;;11.20;71.50;;;;;;5037352;28;20080;-72
2021/09/22 03:19:03;;;;;;;10.52;6.82;;;11.10;71.70;;;;;;5038108;28;20021;-73
2021/09/22 03:21:30;;;;;;;11.38;6.75;;;11.10;71.40;;;;;;5037523;28;20025;-72
2021/09/22 03:23:56;;;;;;;9.50;6.53;;;11.10;71.60;;;;;;5037466;28;20022;-73
2021/09/22 03:26:23;;;;;;;12.50;6.57;;;11.10;71.50;;;;;;5025549;28;20096;-72
2021/09/22 03:28:49;;;;;;;11.25;7.22;;;11.00;71.50;;;;;;5036390;28;20041;-73
2021/09/22 03:31:15;;;;;;;10.60;6.95;;;11.00;71.60;;;;;;5037470;28;20028;-72
2021/09/22 03:33:41;;;;;;;11.98;6.75;;;11.00;71.40;;;;;;5037286;28;20017;-72
2021/09/22 03:36:07;;;;;;;11.45;7.43;;;11.00;71.30;;;;;;5037300;28;20029;-73
2021/09/22 03:38:33;;;;;;;10.32;6.93;;;10.90;71.50;;;;;;5037204;28;20033;-73
2021/09/22 03:40:59;;;;;;;11.05;6.72;;;10.90;71.50;;;;;;5037420;28;20075;-73
2021/09/22 03:43:26;;;;;;;11.95;6.97;;;10.90;71.60;;;;;;5025012;28;20377;-73
2021/09/22 03:45:52;;;;;;;10.63;6.80;;;10.90;71.80;;;;;;5040023;28;20387;-72
2021/09/22 03:48:18;;;;;;;12.13;7.13;;;10.90;71.90;;;;;;5044076;28;20063;-72
2021/09/22 03:50:48;;;;;;;13.15;8.07;;;10.80;71.70;;;;;;5043917;28;20020;-72
2021/09/22 03:53:19;;;;;;;11.02;7.07;;;10.80;71.90;;;;;;5043848;28;20024;-73
2021/09/22 03:55:45;;;;;;;11.48;7.30;;;10.80;72.00;;;;;;5043714;28;20018;-72
2021/09/22 03:58:11;;;;;;;10.80;6.95;;;10.70;72.20;;;;;;5043849;28;20466;-72
2021/09/22 04:00:38;;;;;;;12.65;7.40;;;10.70;72.10;;;;;;5043493;28;20428;-72
2021/09/22 04:03:03;;;;;;;9.43;6.68;;;10.70;72.00;;;;;;5043812;28;20084;-72
2021/09/22 04:05:29;;;;;;;11.57;7.25;;;10.70;72.00;;;;;;5043775;28;20021;-72
2021/09/22 04:07:55;;;;;;;11.30;7.45;;;10.70;72.00;;;;;;5039972;28;20069;-72
2021/09/22 04:10:21;;;;;;;10.15;6.35;;;10.60;72.10;;;;;;5038872;28;20369;-72
2021/09/22 04:12:47;;;;;;;11.30;7.53;;;10.60;72.20;;;;;;5043755;28;20492;-72
2021/09/22 04:15:14;;;;;;;9.02;6.03;;;10.60;72.30;;;;;;5043447;28;20383;-72
2021/09/22 04:17:40;;;;;;;10.52;6.75;;;10.60;72.20;;;;;;5043689;28;20043;-71
2021/09/22 04:20:07;;;;;;;11.50;6.90;;;10.50;72.20;;;;;;5042223;28;20556;-72
2021/09/22 04:22:32;;;;;;;11.13;6.72;;;10.50;72.30;;;;;;5043590;28;20028;-71
2021/09/22 04:24:59;;;;;;;9.95;6.70;;;10.50;72.50;;;;;;5042967;28;20424;-71
2021/09/22 04:27:25;;;;;;;10.80;7.25;;;10.50;72.40;;;;;;5031142;28;20013;-72
2021/09/22 04:29:51;;;;;;;12.60;7.55;;;10.40;72.30;;;;;;5043292;28;20373;-72
2021/09/22 04:32:17;;;;;;;12.63;7.72;;;10.40;72.30;;;;;;5043431;28;20045;-72
2021/09/22 04:34:43;;;;;;;11.23;7.43;;;10.40;72.30;;;;;;5043333;28;20030;-72
2021/09/22 04:37:09;;;;;;;11.90;7.32;;;10.40;72.30;;;;;;5042262;28;20032;-72
2021/09/22 04:39:35;;;;;;;14.63;8.35;;;10.40;72.10;;;;;;5043331;28;20546;-72
2021/09/22 04:42:01;;;;;;;13.98;8.20;;;10.30;73.10;;;;;;5042426;28;20022;-72
2021/09/22 04:44:27;;;;;;;10.93;7.47;;;10.30;72.50;;;;;;5043532;28;20022;-72
2021/09/22 04:46:54;;;;;;;13.00;7.50;;;10.30;72.40;;;;;;5043528;28;20111;-72
2021/09/22 04:49:21;;;;;;;10.82;7.35;;;10.30;72.50;;;;;;5043267;28;20030;-73
2021/09/22 04:51:47;;;;;;;12.77;6.72;;;10.30;72.50;;;;;;5043411;28;20021;-73
2021/09/22 04:54:12;;;;;;;11.38;7.10;;;10.20;71.80;;;;;;5043062;28;20033;-75
2021/09/22 04:56:38;;;;;;;11.90;7.28;;;10.20;72.00;;;;;;5041001;28;20029;-72
2021/09/22 04:59:04;;;;;;;11.48;7.38;;;10.20;72.10;;;;;;5039408;28;20411;-75
2021/09/22 05:01:30;;;;;;;13.38;7.50;;;10.20;72.30;;;;;;5039966;28;20865;-74
2021/09/22 05:03:56;;;;;;;11.13;7.07;;;10.20;72.70;;;;;;5039984;28;20366;-74
2021/09/22 05:06:22;;;;;;;11.98;7.70;;;10.20;72.20;;;;;;5040359;28;20048;-72
2021/09/22 05:08:48;;;;;;;11.50;6.63;;;10.20;73.40;;;;;;5039746;28;20021;-72
2021/09/22 05:11:14;;;;;;;12.38;7.78;;;10.20;72.90;;;;;;5040009;28;20095;-75
2021/09/22 05:13:39;;;;;;;11.75;6.65;;;10.10;72.90;;;;;;5039899;28;20092;-73
2021/09/22 05:16:05;;;;;;;10.98;7.50;;;10.10;72.40;;;;;;5039694;28;20396;-75
2021/09/22 05:18:31;;;;;;;10.85;7.30;;;10.10;72.50;;;;;;5039869;28;20064;-74
2021/09/22 05:20:57;;;;;;;10.25;6.60;;;10.10;72.60;;;;;;5039857;28;20029;-72
2021/09/22 05:23:23;;;;;;;11.10;7.03;;;10.10;72.90;;;;;;5039757;28;20477;-72
2021/09/22 05:25:48;;;;;;;13.40;7.25;;;10.10;73.20;;;;;;5032160;28;20033;-71
2021/09/22 05:28:14;;;;;;;12.25;7.38;;;10.10;72.80;;;;;;5033784;28;20022;-71
2021/09/22 05:30:40;;;;;;;9.77;6.50;;;10.00;72.90;;;;;;5039453;28;20029;-72
2021/09/22 05:33:10;;;;;;;11.88;7.18;;;10.00;72.80;;;;;;5039531;28;20029;-71
2021/09/22 05:35:40;;;;;;;11.15;7.28;;;10.00;72.80;;;;;;5039448;28;20042;-72
2021/09/22 05:38:06;;;;;;;13.30;7.45;;;10.00;72.70;;;;;;5039645;28;20029;-72
2021/09/22 05:40:34;;;;;;;11.73;7.20;;;10.00;72.80;;;;;;5039391;28;20025;-71
2021/09/22 05:43:00;;;;;;;12.02;7.55;;;9.90;72.80;;;;;;5038133;28;20039;-72
2021/09/22 05:45:26;;;;;;;11.63;7.03;;;9.90;72.70;;;;;;5039134;28;20060;-71
2021/09/22 05:47:52;;;;;;;11.18;7.18;;;9.90;72.90;;;;;;5039165;28;20110;-71
2021/09/22 05:50:18;;;;;;;11.65;7.15;;;9.90;72.90;;;;;;5039313;28;20120;-72
2021/09/22 05:52:44;;;;;;;11.30;6.50;;;9.90;73.00;;;;;;5039111;28;20022;-71
2021/09/22 05:55:10;;;;;;;11.82;6.93;;;9.90;73.00;;;;;;5039104;28;20025;-71
2021/09/22 05:57:36;;;;;;;11.68;6.85;;;9.80;73.00;;;;;;5039016;28;20036;-71
2021/09/22 06:00:04;;;;;;;10.05;6.60;;;9.80;73.00;;;;;;5038592;28;20030;-71
2021/09/22 06:02:29;;;;;;;10.35;6.53;;;9.80;73.00;;;;;;5038789;28;20030;-72
2021/09/22 06:04:55;;;;;;;10.50;6.80;;;9.80;73.20;;;;;;5039115;28;20096;-71
2021/09/22 06:07:21;;;;;;;11.27;6.60;;;9.80;72.90;;;;;;5037502;28;20056;-72
2021/09/22 06:09:47;;;;;;;11.77;6.68;;;9.70;72.90;;;;;;5037973;28;20477;-72
2021/09/22 06:12:12;;;;;;;10.68;7.72;;;9.80;72.90;;;;;;5038547;28;20029;-71
2021/09/22 06:14:38;;;;;;;11.10;7.10;;;9.80;72.90;;;;;;5038715;28;20022;-72
2021/09/22 06:17:04;;;;;;;10.90;7.25;;;9.70;73.20;;;;;;5038649;28;20017;-72
2021/09/22 06:19:30;;;;;;;11.25;6.95;;;9.80;73.20;;;;;;5037457;28;20400;-71
2021/09/22 06:21:56;;;;;;;15.88;8.63;;;9.80;73.00;;;;;;5038499;28;20068;-72
2021/09/22 06:24:22;;;;;;;14.93;7.55;;;9.80;74.00;;;;;;5038652;28;20040;-72
2021/09/22 06:26:48;;;;;;;14.63;8.20;;;9.80;73.50;;;;;;5025058;28;20026;-72
2021/09/22 06:29:14;;;;;;;11.82;7.85;;;9.80;73.80;;;;;;5038549;28;20108;-72
2021/09/22 06:31:41;;;;;;;11.13;7.15;;;9.90;74.90;;;;;;5036777;28;20057;-71
2021/09/22 06:34:07;;;;;;;16.20;9.45;;;9.90;75.80;;;;;;5038154;28;20047;-72
2021/09/22 06:36:33;;;;;;;15.68;8.85;;;10.00;77.40;;;;;;5038327;28;20064;-71
2021/09/22 06:38:59;;;;;;;16.05;8.80;;;10.00;76.10;;;;;;5036942;28;20029;-72
2021/09/22 06:41:29;;;;;;;20.48;8.93;;;10.00;76.10;;;;;;5036924;28;20385;-72
2021/09/22 06:43:55;;;;;;;16.90;8.98;;;10.00;75.40;;;;;;5036976;28;20025;-72
2021/09/22 06:46:21;;;;;;;16.75;8.68;;;10.00;74.70;;;;;;5037819;28;20034;-72
2021/09/22 06:48:46;;;;;;;15.70;9.23;;;10.10;74.50;;;;;;5038090;28;20033;-72
2021/09/22 06:51:16;;;;;;;14.82;9.90;;;10.10;74.60;;;;;;5037961;28;20033;-72
2021/09/22 06:53:42;;;;;;;14.55;9.05;;;10.10;74.50;;;;;;5038157;28;20495;-72
2021/09/22 06:56:08;;;;;;;15.10;8.90;;;10.20;73.90;;;;;;5038071;28;20026;-72
2021/09/22 06:58:34;;;;;;;17.40;8.90;;;10.20;73.50;;;;;;5036737;28;20033;-71
2021/09/22 07:01:00;;;;;;;16.92;9.50;;;10.30;73.70;;;;;;5037552;28;20036;-71
2021/09/22 07:03:26;;;;;;;14.18;8.60;;;10.30;73.80;;;;;;5037813;28;20025;-72
2021/09/22 07:05:52;;;;;;;15.35;8.60;;;10.40;73.60;;;;;;5037746;28;20570;-72
2021/09/22 07:08:19;;;;;;;10.98;7.15;;;10.40;73.20;;;;;;5030818;28;20167;-72
2021/09/22 07:10:45;;;;;;;12.32;7.68;;;10.50;73.20;;;;;;5036426;28;20013;-71
2021/09/22 07:13:12;;;;;;;13.00;7.93;;;10.50;73.10;;;;;;5037770;28;20025;-72
2021/09/22 07:15:39;;;;;;;16.05;9.48;;;10.60;73.90;;;;;;5037354;28;20024;-72
2021/09/22 07:18:05;;;;;;;15.68;9.82;;;10.60;74.80;;;;;;5037729;28;20021;-72
2021/09/22 07:20:31;;;;;;;14.98;9.02;;;10.70;75.50;;;;;;5036843;28;20013;-72
2021/09/22 07:22:57;;;;;;;16.27;10.02;;;10.80;75.00;;;;;;5037791;28;20052;-72
2021/09/22 07:25:24;;;;;;;14.20;8.80;;;10.80;75.80;;;;;;5032089;28;20026;-72
2021/09/22 07:27:49;;;;;;;15.85;9.70;;;10.90;75.30;;;;;;5028489;28;20029;-72
2021/09/22 07:30:15;;;;;;;16.27;9.75;;;11.00;74.90;;;;;;5037153;28;20105;-72
2021/09/22 07:32:46;;;;;;;16.02;9.77;;;11.00;74.40;;;;;;5037442;28;20025;-70
2021/09/22 07:35:13;;;;;;;12.90;9.05;;;11.10;74.10;;;;;;5037196;28;20405;-72
2021/09/22 07:37:40;;;;;;;19.50;12.63;;;11.20;74.00;;;;;;5037453;28;20021;-72
2021/09/22 07:40:07;;;;;;;21.83;12.85;;;11.30;76.20;;;;;;5037202;28;20057;-70
2021/09/22 07:42:33;;;;;;;19.48;11.00;;;11.30;77.30;;;;;;5036109;28;20030;-70
2021/09/22 07:44:59;;;;;;;20.75;11.50;;;11.50;76.00;;;;;;5035745;28;20026;-70
2021/09/22 07:47:25;;;;;;;22.42;12.30;;;11.50;75.20;;;;;;5037391;28;20040;-71
2021/09/22 07:49:51;;;;;;;24.05;12.38;;;11.60;75.10;;;;;;5037112;28;20030;-70
2021/09/22 07:52:17;;;;;;;19.05;10.77;;;11.70;75.40;;;;;;5037290;28;20089;-71
2021/09/22 07:54:43;;;;;;;19.77;10.65;;;11.70;74.50;;;;;;5036981;28;20021;-70
2021/09/22 07:57:12;;;;;;;16.92;10.85;;;11.80;74.20;;;;;;5037309;28;20036;-70
2021/09/22 07:59:38;;;;;;;22.40;13.02;;;11.90;74.40;;;;;;5036856;28;20026;-70
2021/09/22 08:02:04;;;;;;;21.25;12.85;;;12.00;75.50;;;;;;5037161;28;20039;-71
2021/09/22 08:04:30;;;;;;;24.60;13.45;;;12.20;75.80;;;;;;5037045;28;20368;-71
2021/09/22 08:06:58;;;;;;;25.77;15.45;;;12.30;75.90;;;;;;5035871;28;20040;-71
2021/09/22 08:09:25;;;;;;;25.08;15.18;;;12.40;77.70;;;;;;5032992;28;20547;-70
2021/09/22 08:11:52;;;;;;;26.35;15.57;;;12.50;77.40;;;;;;5037000;28;20021;-70
2021/09/22 08:14:18;;;;;;;22.98;13.73;;;12.80;77.20;;;;;;5037279;28;20018;-70
2021/09/22 08:16:45;;;;;;;23.13;14.32;;;13.20;77.70;;;;;;5036899;28;20369;-70
2021/09/22 08:19:13;;;;;;;22.85;15.23;;;13.90;78.70;;;;;;5037103;28;20076;-70
2021/09/22 08:21:39;;;;;;;24.08;16.30;;;14.80;78.80;;;;;;5037080;28;20029;-70
2021/09/22 08:24:05;;;;;;;20.85;13.63;;;15.90;77.80;;;;;;5036886;28;20025;-71
2021/09/22 08:26:31;;;;;;;19.42;13.30;;;16.80;77.00;;;;;;5023916;28;20030;-70
2021/09/22 08:28:57;;;;;;;19.45;13.75;;;17.80;75.90;;;;;;5037143;28;20021;-71
2021/09/22 08:31:23;;;;;;;19.33;13.80;;;18.70;74.40;;;;;;5037246;28;20045;-71
2021/09/22 08:33:48;;;;;;;17.08;12.32;;;19.50;73.20;;;;;;5040533;28;20072;-71
2021/09/22 08:36:14;;;;;;;20.85;12.93;;;20.20;72.00;;;;;;5040597;28;20029;-71
2021/09/22 08:38:40;;;;;;;15.55;11.77;;;20.90;70.20;;;;;;5040603;28;20480;-70
2021/09/22 08:41:06;;;;;;;16.42;12.15;;;21.50;69.80;;;;;;5040671;28;20032;-71
2021/09/22 08:43:32;;;;;;;15.98;12.23;;;22.10;68.70;;;;;;5039521;28;20057;-71
2021/09/22 08:45:58;;;;;;;16.25;12.30;;;22.60;67.80;;;;;;5040203;28;20025;-70
2021/09/22 08:48:25;;;;;;;14.65;11.20;;;23.00;67.00;;;;;;5040361;28;20502;-71
2021/09/22 08:50:52;;;;;;;14.57;11.32;;;23.50;66.10;;;;;;5038900;28;20029;-71
2021/09/22 08:53:18;;;;;;;15.82;11.38;;;23.90;65.00;;;;;;5040380;28;20043;-71
2021/09/22 08:55:44;;;;;;;12.43;10.82;;;24.40;64.50;;;;;;5040325;28;20397;-71
2021/09/22 08:58:10;;;;;;;15.48;11.45;;;24.80;64.50;;;;;;5040260;28;20017;-71
2021/09/22 09:00:36;;;;;;;12.82;11.20;;;25.10;63.10;;;;;;5039903;28;20480;-71
2021/09/22 09:03:02;;;;;;;16.02;12.00;;;25.40;61.90;;;;;;5040110;28;20029;-71
2021/09/22 09:05:28;;;;;;;12.82;10.77;;;25.70;61.00;;;;;;5040153;28;20025;-71
2021/09/22 09:07:57;;;;;;;13.55;10.73;;;26.10;60.80;;;;;;5036376;28;20022;-71
2021/09/22 09:10:27;;;;;;;13.68;11.50;;;26.40;59.90;;;;;;5035639;28;20033;-71
2021/09/22 09:13:09;;;;;;;11.45;9.75;;;26.60;57.10;;;;;;5039951;28;20392;-71
2021/09/22 09:15:41;;;;;;;12.20;10.00;;;26.90;58.00;;;;;;5039577;28;20025;-71
2021/09/22 09:18:13;;;;;;;14.68;11.38;;;27.20;57.00;;;;;;5039897;28;20519;-71
2021/09/22 09:20:39;;;;;;;12.88;10.13;;;27.40;55.90;;;;;;5039932;28;20045;-72
2021/09/22 09:23:17;;;;;;;14.90;11.18;;;27.80;56.40;;;;;;5039728;28;20033;-71
2021/09/22 09:25:56;;;;;;;14.07;11.80;;;28.10;56.60;;;;;;5033162;28;20101;-71
2021/09/22 09:28:24;;;;;;;13.32;11.35;;;28.40;55.40;;;;;;5035120;28;20036;-71
2021/09/22 09:31:00;;;;;;;14.90;10.40;;;28.60;54.80;;;;;;5039560;28;20140;-71
2021/09/22 09:33:44;;;;;;;14.93;11.00;;;28.90;54.60;;;;;;5039660;28;20069;-71
2021/09/22 09:36:31;;;;;;;10.60;9.20;;;29.10;53.60;;;;;;5039434;28;20115;-71
2021/09/22 09:39:05;;;;;;;12.02;10.15;;;29.40;54.00;;;;;;5029181;28;20034;-71
2021/09/22 09:41:50;;;;;;;13.23;8.73;;;29.70;52.70;;;;;;5039454;28;20029;-71
2021/09/22 09:44:21;;;;;;;11.45;9.70;;;29.90;52.70;;;;;;5031377;28;20484;-72
2021/09/22 09:46:48;;;;;;;10.57;9.15;;;30.10;52.70;;;;;;5026514;28;20504;-72
2021/09/22 09:49:17;;;;;;;9.55;8.45;;;30.30;51.50;;;;;;5039266;28;20403;-72
2021/09/22 09:51:49;;;;;;;10.35;8.52;;;30.50;51.30;;;;;;5039461;28;20022;-71
2021/09/22 09:54:22;;;;;;;12.43;10.25;;;30.70;51.00;;;;;;5038946;28;20097;-71
2021/09/22 09:56:50;;;;;;;10.75;9.10;;;30.80;49.70;;;;;;5039242;28;20107;-71
2021/09/22 09:59:18;;;;;;;11.70;9.65;;;31.00;50.30;;;;;;5038790;28;20496;-72
2021/09/22 10:01:53;;;;;;;8.82;7.72;;;31.10;49.30;;;;;;5039303;28;20089;-71
2021/09/22 10:04:22;;;;;;;9.02;7.90;;;31.30;49.00;;;;;;5038938;28;20087;-71
2021/09/22 10:06:49;;;;;;;10.55;8.77;;;31.40;50.10;;;;;;5039005;28;20502;-71
2021/09/22 10:09:17;;;;;;;10.02;8.82;;;31.60;48.80;;;;;;5038556;28;20456;-71
2021/09/22 10:11:45;;;;;;;14.80;9.57;;;31.70;46.10;;;;;;5038865;28;20056;-72
2021/09/22 10:14:16;;;;;;;10.45;8.00;;;31.70;45.40;;;;;;5025728;28;20022;-71
2021/09/22 10:16:43;;;;;;;10.07;7.83;;;31.70;46.70;;;;;;5038706;28;20029;-71
2021/09/22 10:19:11;;;;;;;9.45;7.68;;;31.90;47.60;;;;;;5038774;28;20036;-71
2021/09/22 10:21:38;;;;;;;9.32;7.85;;;32.00;47.10;;;;;;5038779;28;20094;-72
2021/09/22 10:24:09;;;;;;;11.35;8.18;;;32.20;46.50;;;;;;5038595;28;20017;-72
2021/09/22 10:26:36;;;;;;;9.13;7.53;;;32.30;45.20;;;;;;5025527;28;20034;-72
2021/09/22 10:29:27;;;;;;;10.10;6.93;;;32.40;46.10;;;;;;5038549;28;20033;-71
2021/09/22 10:31:58;;;;;;;9.23;7.47;;;32.50;45.20;;;;;;5038274;28;20024;-71
2021/09/22 10:34:30;;;;;;;9.48;6.85;;;32.60;45.20;;;;;;5038264;28;20049;-71
2021/09/22 10:36:58;;;;;;;9.63;7.07;;;32.70;45.80;;;;;;5038335;28;20022;-71
2021/09/22 10:39:40;;;;;;;9.27;7.43;;;32.80;45.30;;;;;;5038452;28;20030;-71
2021/09/22 10:42:22;;;;;;;9.85;7.55;;;32.90;45.70;;;;;;5025907;28;20021;-71
2021/09/22 10:44:48;;;;;;;9.23;6.38;;;33.00;44.10;;;;;;5037913;28;20022;-71
2021/09/22 10:47:30;;;;;;;7.47;6.68;;;33.10;44.90;;;;;;5038238;28;20024;-71
2021/09/22 10:49:56;;;;;;;9.52;6.85;;;33.20;44.60;;;;;;5025265;28;20061;-71
2021/09/22 10:52:37;;;;;;;8.85;6.88;;;33.20;44.80;;;;;;5045396;28;20029;-71
2021/09/22 10:55:15;;;;;;;7.75;6.63;;;33.30;43.70;;;;;;5037157;28;20053;-71
2021/09/22 10:57:43;;;;;;;8.00;7.20;;;33.30;44.00;;;;;;5037876;28;20404;-71
2021/09/22 11:00:18;;;;;;;9.00;7.40;;;33.40;43.80;;;;;;5037995;28;20061;-71
2021/09/22 11:02:48;;;;;;;10.23;7.18;;;33.30;42.30;;;;;;5037834;28;20029;-71
2021/09/22 11:05:26;;;;;;;8.73;6.45;;;33.50;43.50;;;;;;5036675;28;20117;-71
2021/09/22 11:08:04;;;;;;;8.05;6.13;;;33.50;43.30;;;;;;5033132;28;20117;-71
2021/09/22 11:10:47;;;;;;;7.75;6.53;;;33.60;43.30;;;;;;5033572;28;20038;-71
2021/09/22 11:13:19;;;;;;;8.18;6.28;;;33.70;43.20;;;;;;5037885;28;20022;-72
2021/09/22 11:15:51;;;;;;;;;;;33.70;43.10;;;;;;5037915;28;20029;-71
2021/09/22 11:18:18;;;;;;;8.52;6.55;;;33.70;42.40;;;;;;5037771;28;19905;-72
2021/09/22 11:21:01;;;;;;;8.85;6.97;;;33.70;42.40;;;;;;5037629;28;20021;-71
2021/09/22 11:23:29;;;;;;;7.47;5.93;;;33.60;41.10;;;;;;5037699;28;20014;-72
2021/09/22 11:26:07;;;;;;;8.07;6.10;;;33.70;42.70;;;;;;5036313;28;20026;-72
2021/09/22 11:28:33;;;;;;;7.53;6.28;;;33.70;42.50;;;;;;5037429;28;20109;-71
2021/09/22 11:30:59;;;;;;;8.35;6.28;;;33.70;42.10;;;;;;5037347;28;20396;-72
2021/09/22 11:33:26;;;;;;;8.73;5.95;;;33.70;41.70;;;;;;5037493;28;20025;-71
2021/09/22 11:35:53;;;;;;;8.52;5.97;;;33.70;41.80;;;;;;5037191;28;20050;-72
2021/09/22 11:38:19;;;;;;;7.63;6.30;;;33.70;41.80;;;;;;5037585;28;20021;-72
2021/09/22 11:40:47;;;;;;;8.07;6.43;;;33.70;41.40;;;;;;5037474;28;20357;-71
2021/09/22 11:43:13;;;;;;;7.78;6.85;;;33.70;41.40;;;;;;5037587;28;20032;-71
2021/09/22 11:45:40;;;;;;;7.40;6.00;;;33.60;39.80;;;;;;5037369;28;20361;-71
2021/09/22 11:48:07;;;;;;;8.77;6.40;;;33.60;40.70;;;;;;5037398;28;20014;-71
2021/09/22 11:50:37;;;;;;;7.63;6.20;;;33.60;40.90;;;;;;5037412;28;20075;-71
2021/09/22 11:53:07;;;;;;;8.55;6.50;;;33.60;41.40;;;;;;5037172;28;20037;-71
2021/09/22 11:55:33;;;;;;;8.10;6.32;;;33.50;41.30;;;;;;5037140;28;20022;-72
2021/09/22 11:58:10;;;;;;;9.02;7.10;;;33.50;41.40;;;;;;5037286;28;20020;-71
2021/09/22 12:00:37;;;;;;;8.23;6.57;;;33.40;40.90;;;;;;5037067;28;20391;-72
2021/09/22 12:03:15;;;;;;;8.02;6.18;;;33.30;41.20;;;;;;5037361;28;20064;-72
2021/09/22 12:05:43;;;;;;;9.00;6.20;;;33.30;41.30;;;;;;5037176;28;20038;-71
2021/09/22 12:08:13;;;;;;;9.13;6.30;;;33.30;41.30;;;;;;5040815;28;20021;-71
2021/09/22 12:10:45;;;;;;;7.82;6.13;;;33.30;40.70;;;;;;5041210;28;20028;-71
2021/09/22 12:13:11;;;;;;;7.72;6.82;;;33.20;40.50;;;;;;5041203;28;20435;-71
2021/09/22 12:15:37;;;;;;;9.38;7.38;;;33.10;39.80;;;;;;5040987;28;20484;-71
2021/09/22 12:18:03;;;;;;;7.80;6.15;;;33.10;41.20;;;;;;5041038;28;20160;-71
2021/09/22 12:20:30;;;;;;;7.18;5.70;;;33.10;41.30;;;;;;5040949;28;20120;-71
2021/09/22 12:23:07;;;;;;;9.07;6.10;;;33.10;41.30;;;;;;5040971;28;20061;-71
2021/09/22 12:25:35;;;;;;;8.00;6.38;;;33.10;41.00;;;;;;5040827;28;20034;-71
2021/09/22 12:28:02;;;;;;;7.95;5.88;;;33.10;40.80;;;;;;5041064;28;20036;-71
2021/09/22 12:30:37;;;;;;;8.63;6.78;;;32.90;40.10;;;;;;5040342;28;20018;-71
2021/09/22 12:33:06;;;;;;;7.40;6.40;;;32.90;40.00;;;;;;5040672;28;20031;-71
2021/09/22 12:35:36;;;;;;;8.20;5.85;;;32.80;40.40;;;;;;5040459;28;20049;-71
2021/09/22 12:38:05;;;;;;;8.30;6.85;;;32.70;40.70;;;;;;5039316;28;20487;-72
2021/09/22 12:40:38;;;;;;;8.40;6.68;;;32.40;40.30;;;;;;5040649;28;20021;-71